createdAt,value
2019-04-01T00:00:37.883Z,8.10
2019-04-01T00:03:08.006Z,8.10
2019-04-01T00:05:36.538Z,8.10
2019-04-01T00:08:05.092Z,8.00
2019-04-01T00:10:33.574Z,8.10
2019-04-01T00:13:02.031Z,8.00
2019-04-01T00:15:30.494Z,8.00
2019-04-01T00:17:58.915Z,8.00
2019-04-01T00:20:27.371Z,7.90
2019-04-01T00:22:55.896Z,7.90
2019-04-01T00:25:24.633Z,7.90
2019-04-01T00:27:53.108Z,7.80
2019-04-01T00:30:21.619Z,7.80
2019-04-01T00:32:50.066Z,7.90
2019-04-01T00:35:18.643Z,7.80
2019-04-01T00:37:47.118Z,7.80
2019-04-01T00:40:15.691Z,7.80
2019-04-01T00:42:45.824Z,7.80
2019-04-01T00:45:15.990Z,7.70
2019-04-01T00:47:44.488Z,7.60
2019-04-01T00:50:13.033Z,7.60
2019-04-01T00:52:41.483Z,7.60
2019-04-01T00:55:10.051Z,7.60
2019-04-01T00:57:38.522Z,7.50
2019-04-01T01:00:07.327Z,7.40
2019-04-01T01:02:35.756Z,7.40
2019-04-01T01:05:09.054Z,7.40
2019-04-01T01:07:37.611Z,7.40
2019-04-01T01:10:07.875Z,7.30
2019-04-01T01:12:37.698Z,7.30
2019-04-01T01:15:07.471Z,7.30
2019-04-01T01:17:55.266Z,7.30
2019-04-01T01:20:23.779Z,7.20
2019-04-01T01:22:52.221Z,7.10
2019-04-01T01:25:20.754Z,7.20
2019-04-01T01:27:49.203Z,7.30
2019-04-01T01:30:20.639Z,7.30
2019-04-01T01:32:49.135Z,7.20
2019-04-01T01:35:17.577Z,7.10
2019-04-01T01:37:46.075Z,7.20
2019-04-01T01:40:14.560Z,7.10
2019-04-01T01:42:43.000Z,7.10
2019-04-01T01:45:30.856Z,7.00
2019-04-01T01:47:59.304Z,7.10
2019-04-01T01:50:27.811Z,7.10
2019-04-01T01:52:56.255Z,7.20
2019-04-01T01:55:24.714Z,7.10
2019-04-01T01:57:53.179Z,7.00
2019-04-01T02:00:22.890Z,7.00
2019-04-01T02:02:51.381Z,6.90
2019-04-01T02:05:20.468Z,6.80
2019-04-01T02:07:49.007Z,6.80
2019-04-01T02:10:17.548Z,6.70
2019-04-01T02:12:46.036Z,6.70
2019-04-01T02:15:14.566Z,6.80
2019-04-01T02:17:43.079Z,6.70
2019-04-01T02:20:11.574Z,6.70
2019-04-01T02:22:40.072Z,6.70
2019-04-01T02:25:08.760Z,6.60
2019-04-01T02:27:37.264Z,6.60
2019-04-01T02:30:05.991Z,6.50
2019-04-01T02:32:34.447Z,6.40
2019-04-01T02:35:02.970Z,6.40
2019-04-01T02:37:31.446Z,6.40
2019-04-01T02:39:59.942Z,6.30
2019-04-01T02:42:28.394Z,6.30
2019-04-01T02:44:57.189Z,6.30
2019-04-01T02:47:25.658Z,6.30
2019-04-01T02:49:54.071Z,6.30
2019-04-01T02:52:22.522Z,6.30
2019-04-01T02:54:51.125Z,6.20
2019-04-01T02:57:19.791Z,6.20
2019-04-01T02:59:48.235Z,6.20
2019-04-01T03:02:16.779Z,6.20
2019-04-01T03:04:45.325Z,6.20
2019-04-01T03:07:13.736Z,6.10
2019-04-01T03:09:42.206Z,6.10
2019-04-01T03:12:10.695Z,6.10
2019-04-01T03:14:39.160Z,6.10
2019-04-01T03:17:08.002Z,6.00
2019-04-01T03:19:36.568Z,6.00
2019-04-01T03:22:05.122Z,6.00
2019-04-01T03:24:33.602Z,5.90
2019-04-01T03:27:02.132Z,5.90
2019-04-01T03:29:30.664Z,5.80
2019-04-01T03:31:59.150Z,5.80
2019-04-01T03:34:27.577Z,5.80
2019-04-01T03:36:57.558Z,5.80
2019-04-01T03:39:26.030Z,5.80
2019-04-01T03:41:54.544Z,5.70
2019-04-01T03:44:23.144Z,5.70
2019-04-01T03:46:51.606Z,5.70
2019-04-01T03:49:20.177Z,5.70
2019-04-01T03:51:48.658Z,5.60
2019-04-01T03:54:17.107Z,5.60
2019-04-01T03:56:45.601Z,5.60
2019-04-01T03:59:14.021Z,5.60
2019-04-01T04:01:42.497Z,5.50
2019-04-01T04:04:10.971Z,5.50
2019-04-01T04:06:39.425Z,5.60
2019-04-01T04:09:07.902Z,5.50
2019-04-01T04:11:36.512Z,5.50
2019-04-01T04:14:04.993Z,5.40
2019-04-01T04:16:33.488Z,5.40
2019-04-01T04:19:01.955Z,5.40
2019-04-01T04:21:30.420Z,5.40
2019-04-01T04:23:58.840Z,5.40
2019-04-01T04:26:27.342Z,5.40
2019-04-01T04:28:55.852Z,5.30
2019-04-01T04:31:24.275Z,5.30
2019-04-01T04:33:52.742Z,5.30
2019-04-01T04:36:21.147Z,5.30
2019-04-01T04:38:51.283Z,5.20
2019-04-01T04:41:19.779Z,5.10
2019-04-01T04:43:48.326Z,5.20
2019-04-01T04:46:20.688Z,5.10
2019-04-01T04:48:47.146Z,5.10
2019-04-01T04:51:15.612Z,5.10
2019-04-01T04:53:44.464Z,5.00
2019-04-01T04:56:13.027Z,5.00
2019-04-01T04:58:41.588Z,5.00
2019-04-01T05:01:10.216Z,5.00
2019-04-01T05:03:38.729Z,4.90
2019-04-01T05:06:07.216Z,4.90
2019-04-01T05:08:35.669Z,4.90
2019-04-01T05:11:04.236Z,4.90
2019-04-01T05:13:32.700Z,4.90
2019-04-01T05:16:01.291Z,4.90
2019-04-01T05:18:29.737Z,4.90
2019-04-01T05:20:59.734Z,5.00
2019-04-01T05:23:29.052Z,5.00
2019-04-01T05:25:58.164Z,5.00
2019-04-01T05:28:29.135Z,5.00
2019-04-01T05:30:59.557Z,5.00
2019-04-01T05:33:29.352Z,5.00
2019-04-01T05:35:58.211Z,5.00
2019-04-01T05:38:27.104Z,5.10
2019-04-01T05:40:55.764Z,5.10
2019-04-01T05:43:24.278Z,5.10
2019-04-01T05:45:52.871Z,5.20
2019-04-01T05:48:21.286Z,5.20
2019-04-01T05:50:51.304Z,5.30
2019-04-01T05:53:19.815Z,5.30
2019-04-01T05:55:49.371Z,5.30
2019-04-01T05:58:19.337Z,5.30
2019-04-01T06:00:50.383Z,5.30
2019-04-01T06:03:18.935Z,5.40
2019-04-01T06:05:47.806Z,5.40
2019-04-01T06:08:16.967Z,5.50
2019-04-01T06:10:45.444Z,5.60
2019-04-01T06:13:14.036Z,5.60
2019-04-01T06:15:42.524Z,5.70
2019-04-01T06:18:10.996Z,5.80
2019-04-01T06:20:40.308Z,5.80
2019-04-01T06:23:08.864Z,6.00
2019-04-01T06:25:37.438Z,6.00
2019-04-01T06:28:05.880Z,6.10
2019-04-01T06:30:34.391Z,6.30
2019-04-01T06:33:02.993Z,6.40
2019-04-01T06:35:32.413Z,6.50
2019-04-01T06:38:01.107Z,6.60
2019-04-01T06:40:29.578Z,6.70
2019-04-01T06:42:58.103Z,6.80
2019-04-01T06:45:26.697Z,6.90
2019-04-01T06:47:55.278Z,7.10
2019-04-01T06:50:23.814Z,7.10
2019-04-01T06:52:53.884Z,7.00
2019-04-01T06:55:23.842Z,7.20
2019-04-01T06:57:52.433Z,7.30
2019-04-01T07:00:23.069Z,7.40
2019-04-01T07:02:51.498Z,7.50
2019-04-01T07:05:20.060Z,7.60
2019-04-01T07:07:50.177Z,8.00
2019-04-01T07:10:18.994Z,8.40
2019-04-01T07:12:47.638Z,8.70
2019-04-01T07:15:16.200Z,8.80
2019-04-01T07:17:44.610Z,8.50
2019-04-01T07:20:13.257Z,8.50
2019-04-01T07:22:42.102Z,9.10
2019-04-01T07:25:10.812Z,9.20
2019-04-01T07:27:39.455Z,9.50
2019-04-01T07:30:08.364Z,10.00
2019-04-01T07:32:36.938Z,10.30
2019-04-01T07:35:06.017Z,9.70
2019-04-01T07:37:34.557Z,10.20
2019-04-01T07:40:04.550Z,9.90
2019-04-01T07:42:33.034Z,10.00
2019-04-01T07:45:01.556Z,10.50
2019-04-01T07:47:31.829Z,10.60
2019-04-01T07:50:00.408Z,10.70
2019-04-01T07:52:31.136Z,10.20
2019-04-01T07:55:00.426Z,10.20
2019-04-01T07:57:32.632Z,9.90
2019-04-01T08:00:00.377Z,9.90
2019-04-01T08:02:28.982Z,9.80
2019-04-01T08:04:57.527Z,10.10
2019-04-01T08:07:26.074Z,10.00
2019-04-01T08:09:54.561Z,9.70
2019-04-01T08:12:23.690Z,9.80
2019-04-01T08:14:52.348Z,10.10
2019-04-01T08:17:21.073Z,10.20
2019-04-01T08:19:49.595Z,10.30
2019-04-01T08:22:18.112Z,10.50
2019-04-01T08:24:46.621Z,11.00
2019-04-01T08:27:15.161Z,11.50
2019-04-01T08:29:43.744Z,10.80
2019-04-01T08:32:14.053Z,10.80
2019-04-01T08:34:42.423Z,11.00
2019-04-01T08:37:11.007Z,11.10
2019-04-01T08:39:39.563Z,11.30
2019-04-01T08:42:08.020Z,11.30
2019-04-01T08:44:36.559Z,11.30
2019-04-01T08:47:05.155Z,11.60
2019-04-01T08:49:33.803Z,11.60
2019-04-01T08:52:02.286Z,11.00
2019-04-01T08:54:30.820Z,11.40
2019-04-01T08:56:59.411Z,11.60
2019-04-01T08:59:28.004Z,11.80
2019-04-01T09:01:56.519Z,11.70
2019-04-01T09:04:24.996Z,11.80
2019-04-01T09:06:53.486Z,12.00
2019-04-01T09:09:23.624Z,11.80
2019-04-01T09:11:54.111Z,12.10
2019-04-01T09:14:23.655Z,12.00
2019-04-01T09:16:57.926Z,12.00
2019-04-01T09:19:26.449Z,11.60
2019-04-01T09:21:54.934Z,12.00
2019-04-01T09:24:23.492Z,12.40
2019-04-01T09:26:51.986Z,12.60
2019-04-01T09:29:20.558Z,12.80
2019-04-01T09:31:49.028Z,12.60
2019-04-01T09:34:17.478Z,12.20
2019-04-01T09:36:46.039Z,12.30
2019-04-01T09:39:14.516Z,12.40
2019-04-01T09:41:43.012Z,12.70
2019-04-01T09:44:11.500Z,12.90
2019-04-01T09:46:39.950Z,13.00
2019-04-01T09:49:08.408Z,13.00
2019-04-01T09:51:48.601Z,12.90
2019-04-01T09:54:08.241Z,13.10
2019-04-01T09:56:36.736Z,12.90
2019-04-01T09:59:05.407Z,13.20
2019-04-01T10:01:33.899Z,13.40
2019-04-01T10:04:02.414Z,13.30
2019-04-01T10:06:31.059Z,13.10
2019-04-01T10:08:59.522Z,12.80
2019-04-01T10:11:29.286Z,13.10
2019-04-01T10:13:57.825Z,13.30
2019-04-01T10:16:26.576Z,13.40
2019-04-01T10:18:55.239Z,13.60
2019-04-01T10:21:23.734Z,13.60
2019-04-01T10:23:52.549Z,13.60
2019-04-01T10:26:20.997Z,13.50
2019-04-01T10:28:49.513Z,14.00
2019-04-01T10:31:18.018Z,13.90
2019-04-01T10:33:46.455Z,14.20
2019-04-01T10:36:14.980Z,14.10
2019-04-01T10:38:46.509Z,14.10
2019-04-01T10:41:14.970Z,13.90
2019-04-01T10:43:43.530Z,14.00
2019-04-01T10:46:12.504Z,14.20
2019-04-01T10:48:41.248Z,14.40
2019-04-01T10:51:09.942Z,14.70
2019-04-01T10:53:38.375Z,14.60
2019-04-01T10:56:06.829Z,14.60
2019-04-01T10:58:35.974Z,14.40
2019-04-01T11:01:04.543Z,14.50
2019-04-01T11:03:33.202Z,14.80
2019-04-01T11:06:01.680Z,14.80
2019-04-01T11:08:30.346Z,15.00
2019-04-01T11:10:58.767Z,14.80
2019-04-01T11:13:31.610Z,14.80
2019-04-01T11:16:00.128Z,14.90
2019-04-01T11:18:28.562Z,15.20
2019-04-01T11:20:57.306Z,15.20
2019-04-01T11:23:28.355Z,15.30
2019-04-01T11:25:56.858Z,15.40
2019-04-01T11:28:25.307Z,15.20
2019-04-01T11:30:53.821Z,15.30
2019-04-01T11:33:22.382Z,15.40
2019-04-01T11:35:50.858Z,15.40
2019-04-01T11:38:19.398Z,15.60
2019-04-01T11:40:49.436Z,15.80
2019-04-01T11:43:18.057Z,15.70
2019-04-01T11:45:46.551Z,15.70
2019-04-01T11:48:15.098Z,15.60
2019-04-01T11:50:47.386Z,15.80
2019-04-01T11:53:13.996Z,15.60
2019-04-01T11:55:42.602Z,15.50
2019-04-01T11:58:11.060Z,15.90
2019-04-01T12:00:39.561Z,15.70
2019-04-01T12:03:08.010Z,15.80
2019-04-01T12:05:36.604Z,16.00
2019-04-01T12:08:05.022Z,15.80
2019-04-01T12:10:33.543Z,15.60
2019-04-01T12:13:01.977Z,15.90
2019-04-01T12:15:49.835Z,16.00
2019-04-01T12:18:18.347Z,15.90
2019-04-01T12:20:46.816Z,15.90
2019-04-01T12:23:15.408Z,15.70
2019-04-01T12:25:44.060Z,15.60
2019-04-01T12:28:14.099Z,15.80
2019-04-01T12:30:42.663Z,15.80
2019-04-01T12:33:11.164Z,16.10
2019-04-01T12:35:39.643Z,16.00
2019-04-01T12:38:08.070Z,16.10
2019-04-01T12:40:36.529Z,16.30
2019-04-01T12:43:05.162Z,16.30
2019-04-01T12:45:33.855Z,16.50
2019-04-01T12:48:02.303Z,16.70
2019-04-01T12:50:30.751Z,16.90
2019-04-01T12:52:59.211Z,16.60
2019-04-01T12:55:27.830Z,16.60
2019-04-01T12:57:56.276Z,16.80
2019-04-01T13:00:24.863Z,16.80
2019-04-01T13:02:53.322Z,16.80
2019-04-01T13:05:22.028Z,16.70
2019-04-01T13:07:54.155Z,16.60
2019-04-01T13:10:21.630Z,16.90
2019-04-01T13:12:53.761Z,17.10
2019-04-01T13:15:20.508Z,17.20
2019-04-01T13:17:49.932Z,17.20
2019-04-01T13:20:18.885Z,16.90
2019-04-01T13:22:48.023Z,16.80
2019-04-01T13:25:16.657Z,16.90
2019-04-01T13:27:45.086Z,17.00
2019-04-01T13:30:13.643Z,17.10
2019-04-01T13:32:42.117Z,17.20
2019-04-01T13:35:10.967Z,17.10
2019-04-01T13:37:39.385Z,17.30
2019-04-01T13:40:19.426Z,17.20
2019-04-01T13:42:46.603Z,17.20
2019-04-01T13:45:15.099Z,17.20
2019-04-01T13:47:43.527Z,17.30
2019-04-01T13:50:12.126Z,17.40
2019-04-01T13:52:40.661Z,17.20
2019-04-01T13:55:10.104Z,17.50
2019-04-01T13:57:38.865Z,17.30
2019-04-01T14:00:08.799Z,17.40
2019-04-01T14:02:37.319Z,17.50
2019-04-01T14:05:07.026Z,17.60
2019-04-01T14:07:35.614Z,17.40
2019-04-01T14:10:06.635Z,17.40
2019-04-01T14:12:35.207Z,17.30
2019-04-01T14:15:06.253Z,17.50
2019-04-01T14:17:34.855Z,17.60
2019-04-01T14:20:03.631Z,17.80
2019-04-01T14:22:32.070Z,17.70
2019-04-01T14:25:00.685Z,17.70
2019-04-01T14:27:29.234Z,17.80
2019-04-01T14:30:17.112Z,17.70
2019-04-01T14:32:45.572Z,17.50
2019-04-01T14:35:14.359Z,17.70
2019-04-01T14:37:43.227Z,17.70
2019-04-01T14:40:13.336Z,17.80
2019-04-01T14:42:41.845Z,17.90
2019-04-01T14:45:10.927Z,17.80
2019-04-01T14:47:56.077Z,17.80
2019-04-01T14:50:09.898Z,17.60
2019-04-01T14:52:38.379Z,17.50
2019-04-01T14:55:07.323Z,17.50
2019-04-01T14:57:35.859Z,17.40
2019-04-01T15:00:06.939Z,17.30
2019-04-01T15:02:35.445Z,17.40
2019-04-01T15:05:05.122Z,17.40
2019-04-01T15:07:33.952Z,17.60
2019-04-01T15:10:02.499Z,17.70
2019-04-01T15:12:30.950Z,17.70
2019-04-01T15:14:59.403Z,17.70
2019-04-01T15:17:27.825Z,17.70
2019-04-01T15:19:56.938Z,17.80
2019-04-01T15:22:27.254Z,17.80
2019-04-01T15:24:55.866Z,17.50
2019-04-01T15:27:24.290Z,17.40
2019-04-01T15:30:01.463Z,17.30
2019-04-01T15:32:29.971Z,17.40
2019-04-01T15:34:58.571Z,17.40
2019-04-01T15:37:27.383Z,17.30
2019-04-01T15:39:55.963Z,17.20
2019-04-01T15:42:24.394Z,17.30
2019-04-01T15:44:52.911Z,17.30
2019-04-01T15:47:21.358Z,17.30
2019-04-01T15:49:49.835Z,17.30
2019-04-01T15:52:18.364Z,17.30
2019-04-01T15:54:46.835Z,17.30
2019-04-01T15:57:15.465Z,17.20
2019-04-01T15:59:43.948Z,17.20
2019-04-01T16:02:12.479Z,17.20
2019-04-01T16:05:00.406Z,17.30
2019-04-01T16:07:29.260Z,17.20
2019-04-01T16:09:57.788Z,17.10
2019-04-01T16:12:26.265Z,17.20
2019-04-01T16:14:54.792Z,17.30
2019-04-01T16:17:23.267Z,17.20
2019-04-01T16:19:51.823Z,17.10
2019-04-01T16:22:21.198Z,17.00
2019-04-01T16:24:50.547Z,17.00
2019-04-01T16:27:19.070Z,16.90
2019-04-01T16:29:47.513Z,16.80
2019-04-01T16:32:15.934Z,16.80
2019-04-01T16:34:44.469Z,16.80
2019-04-01T16:37:12.957Z,16.80
2019-04-01T16:39:41.486Z,16.80
2019-04-01T16:42:09.924Z,16.80
2019-04-01T16:44:38.390Z,16.70
2019-04-01T16:47:06.998Z,16.70
2019-04-01T16:49:36.318Z,16.60
2019-04-01T16:52:05.716Z,16.60
2019-04-01T16:54:34.271Z,16.60
2019-04-01T16:57:02.705Z,16.50
2019-04-01T16:59:31.140Z,16.50
2019-04-01T17:01:59.687Z,16.40
2019-04-01T17:04:28.131Z,16.40
2019-04-01T17:06:56.602Z,16.30
2019-04-01T17:09:25.147Z,16.30
2019-04-01T17:11:54.380Z,16.20
2019-04-01T17:14:24.195Z,16.20
2019-04-01T17:16:53.202Z,16.10
2019-04-01T17:19:22.303Z,16.20
2019-04-01T17:21:50.969Z,16.30
2019-04-01T17:24:19.431Z,16.40
2019-04-01T17:26:59.782Z,16.20
2019-04-01T17:29:31.809Z,16.20
2019-04-01T17:31:59.539Z,16.40
2019-04-01T17:34:28.009Z,16.50
2019-04-01T17:36:56.484Z,16.80
2019-04-01T17:39:25.139Z,17.10
2019-04-01T17:41:53.664Z,17.00
2019-04-01T17:44:22.210Z,16.70
2019-04-01T17:46:50.722Z,16.40
2019-04-01T17:49:19.256Z,16.10
2019-04-01T17:51:47.727Z,15.90
2019-04-01T17:54:16.196Z,15.60
2019-04-01T17:56:44.786Z,15.20
2019-04-01T17:59:15.339Z,14.90
2019-04-01T18:01:44.054Z,14.60
2019-04-01T18:04:13.044Z,14.30
2019-04-01T18:06:41.745Z,14.00
2019-04-01T18:09:14.462Z,13.80
2019-04-01T18:11:42.994Z,13.80
2019-04-01T18:14:11.959Z,13.50
2019-04-01T18:16:40.475Z,13.30
2019-04-01T18:19:12.883Z,13.00
2019-04-01T18:21:41.370Z,12.80
2019-04-01T18:24:11.210Z,12.60
2019-04-01T18:26:39.907Z,12.80
2019-04-01T18:29:09.930Z,12.70
2019-04-01T18:31:38.774Z,12.50
2019-04-01T18:34:07.246Z,12.40
2019-04-01T18:36:35.766Z,12.20
2019-04-01T18:39:08.433Z,12.00
2019-04-01T18:41:36.895Z,11.90
2019-04-01T18:44:05.873Z,11.90
2019-04-01T18:46:34.371Z,12.00
2019-04-01T18:49:03.157Z,11.80
2019-04-01T18:51:31.613Z,11.70
2019-04-01T18:54:00.173Z,11.50
2019-04-01T18:56:29.191Z,11.60
2019-04-01T18:58:58.183Z,11.60
2019-04-01T19:01:27.071Z,11.90
2019-04-01T19:03:55.566Z,11.80
2019-04-01T19:06:24.248Z,12.10
2019-04-01T19:08:52.765Z,12.10
2019-04-01T19:11:21.273Z,11.70
2019-04-01T19:13:49.729Z,11.60
2019-04-01T19:16:18.252Z,11.50
2019-04-01T19:18:46.787Z,11.90
2019-04-01T19:21:15.222Z,12.00
2019-04-01T19:23:43.658Z,12.20
2019-04-01T19:26:12.129Z,12.50
2019-04-01T19:28:40.707Z,12.40
2019-04-01T19:31:09.279Z,12.60
2019-04-01T19:33:38.253Z,12.60
2019-04-01T19:36:07.190Z,12.50
2019-04-01T19:38:35.636Z,12.70
2019-04-01T19:41:04.268Z,12.60
2019-04-01T19:43:32.788Z,12.70
2019-04-01T19:46:01.328Z,12.70
2019-04-01T19:48:29.834Z,12.90
2019-04-01T19:50:59.327Z,12.80
2019-04-01T19:53:28.037Z,13.00
2019-04-01T19:55:56.616Z,13.00
2019-04-01T19:58:25.488Z,13.20
2019-04-01T20:00:54.711Z,13.20
2019-04-01T20:03:23.165Z,13.20
2019-04-01T20:05:51.647Z,13.20
2019-04-01T20:08:23.065Z,13.40
2019-04-01T20:10:51.726Z,13.50
2019-04-01T20:13:20.261Z,13.40
2019-04-01T20:16:10.185Z,13.50
2019-04-01T20:18:38.447Z,13.40
2019-04-01T20:21:06.886Z,13.30
2019-04-01T20:23:35.486Z,13.50
2019-04-01T20:26:04.781Z,13.50
2019-04-01T20:28:33.388Z,13.50
2019-04-01T20:31:01.858Z,13.40
2019-04-01T20:33:31.793Z,13.50
2019-04-01T20:36:00.625Z,13.60
2019-04-01T20:38:30.883Z,13.50
2019-04-01T20:40:59.426Z,13.40
2019-04-01T20:43:27.873Z,13.40
2019-04-01T20:45:56.359Z,13.40
2019-04-01T20:48:24.837Z,13.30
2019-04-01T20:50:55.033Z,13.20
2019-04-01T20:53:23.667Z,13.20
2019-04-01T20:55:52.238Z,13.10
2019-04-01T20:58:20.902Z,13.00
2019-04-01T21:00:49.883Z,12.80
2019-04-01T21:03:19.869Z,12.90
2019-04-01T21:05:50.055Z,12.90
2019-04-01T21:08:18.542Z,12.80
2019-04-01T21:10:47.079Z,12.70
2019-04-01T21:13:16.827Z,12.60
2019-04-01T21:15:45.273Z,12.60
2019-04-01T21:18:13.703Z,12.50
2019-04-01T21:20:42.271Z,12.40
2019-04-01T21:23:11.124Z,12.50
2019-04-01T21:25:39.530Z,12.40
2019-04-01T21:28:07.975Z,12.40
2019-04-01T21:30:36.412Z,12.40
2019-04-01T21:33:05.170Z,12.30
2019-04-01T21:35:54.491Z,12.30
2019-04-01T21:38:22.901Z,12.20
2019-04-01T21:40:51.384Z,12.20
2019-04-01T21:43:20.302Z,12.20
2019-04-01T21:45:49.282Z,12.20
2019-04-01T21:48:17.770Z,12.30
2019-04-01T21:50:46.300Z,12.30
2019-04-01T21:53:14.740Z,12.30
2019-04-01T21:55:43.158Z,12.40
2019-04-01T21:58:11.739Z,12.30
2019-04-01T22:00:47.770Z,12.40
2019-04-01T22:03:16.223Z,12.20
2019-04-01T22:05:44.672Z,12.20
2019-04-01T22:08:13.107Z,12.10
2019-04-01T22:10:41.599Z,12.10
2019-04-01T22:13:21.987Z,12.10
2019-04-01T22:15:50.601Z,11.90
2019-04-01T22:18:19.067Z,11.80
2019-04-01T22:20:47.495Z,11.80
2019-04-01T22:23:15.960Z,11.80
2019-04-01T22:25:44.443Z,11.90
2019-04-01T22:28:12.935Z,11.90
2019-04-01T22:30:41.382Z,11.90
2019-04-01T22:33:11.071Z,11.90
2019-04-01T22:35:41.525Z,11.90
2019-04-01T22:38:09.970Z,11.90
2019-04-01T22:40:38.446Z,11.70
2019-04-01T22:43:26.215Z,11.70
2019-04-01T22:45:54.667Z,11.60
2019-04-01T22:48:23.097Z,11.70
2019-04-01T22:50:51.548Z,11.70
2019-04-01T22:53:20.042Z,11.50
2019-04-01T22:55:48.481Z,11.60
2019-04-01T22:58:16.974Z,11.60
2019-04-01T23:00:46.202Z,11.60
2019-04-01T23:03:15.740Z,11.70
2019-04-01T23:05:44.189Z,11.70
2019-04-01T23:08:12.651Z,11.70
2019-04-01T23:10:41.073Z,11.60
2019-04-01T23:13:09.494Z,11.50
2019-04-01T23:15:57.270Z,11.60
2019-04-01T23:18:25.710Z,11.50
2019-04-01T23:20:54.182Z,11.50
2019-04-01T23:23:22.645Z,11.30
2019-04-01T23:25:51.099Z,11.30
2019-04-01T23:28:19.558Z,11.40
2019-04-01T23:30:48.152Z,11.30
2019-04-01T23:33:17.623Z,11.20
2019-04-01T23:35:46.130Z,11.20
2019-04-01T23:38:14.651Z,11.10
2019-04-01T23:40:43.157Z,11.10
2019-04-01T23:43:11.569Z,11.20
2019-04-01T23:45:40.118Z,11.10
2019-04-01T23:48:08.538Z,11.30
2019-04-01T23:50:38.034Z,11.20
2019-04-01T23:53:06.922Z,11.20
2019-04-01T23:55:35.358Z,11.20
2019-04-01T23:58:03.877Z,11.20
